Ldhl, Florida
Current Conditions -  °F | °C
As of 8:53 PM on Monday 24 Nov 2014 (Local Time) from KFXE Reporting Station
Clear Clear  
Wind Chill: 80°   Ceiling: Unl
Heat Index: 86°   Visibility: 10mi
Dew Point: 77°   Wind: 7mph
Humidity: 90%   Direction: 140°SE
Pressure: 30.03"   Gusts: NA
Location:  26.1819°N, 80.2274°W
Report Text: KFXE 250153Z 14006KT 10SM CLR 27/25 A3003 RMK AO2 SLP171 T02670250
Loading
Personal Weather Stations






























Interactive Weather Map New forecast layout! Learn more

10-Day Weather Forecast

Advertisements
Track Severe Weather on mobile